Time;durP1;ratioP1;P1;durP2;ratioP2;P2;SDS_P1;SDS_P2;PMS_P1;PMS_P2;Temp;Humidity;BMP_temperature;BMP_pressure;BME280_temperature;BME280_humidity;BME280_pressure;Samples;Min_cycle;Max_cycle;Signal;HPM_P1;HPM_P2
2022/10/27 00:00:04;;;;;;;31.47;19.20;;;11.90;99.90;;;;;;5092137;28;20220;-72
2022/10/27 00:02:31;;;;;;;29.17;20.30;;;11.60;99.90;;;;;;5092162;28;20216;-72
2022/10/27 00:04:58;;;;;;;28.70;19.77;;;11.70;99.90;;;;;;5090001;28;20657;-73
2022/10/27 00:07:24;;;;;;;30.13;17.93;;;11.70;99.90;;;;;;5072476;28;20232;-72
2022/10/27 00:09:51;;;;;;;28.87;18.30;;;11.70;99.90;;;;;;5071506;28;20209;-72
2022/10/27 00:12:18;;;;;;;26.03;17.83;;;11.60;99.90;;;;;;5072979;28;20549;-72
2022/10/27 00:14:45;;;;;;;27.67;19.07;;;11.70;99.90;;;;;;5071342;28;20216;-72
2022/10/27 00:17:13;;;;;;;25.03;18.20;;;11.70;99.90;;;;;;5071892;28;20204;-72
2022/10/27 00:19:40;;;;;;;30.10;19.33;;;11.70;99.90;;;;;;5069627;28;20229;-71
2022/10/27 00:22:06;;;;;;;27.67;18.83;;;11.60;99.90;;;;;;5071215;28;20205;-71
2022/10/27 00:24:33;;;;;;;27.17;17.70;;;11.70;99.90;;;;;;5070339;28;20213;-72
2022/10/27 00:27:00;;;;;;;28.77;19.07;;;11.60;99.90;;;;;;5070034;28;20217;-71
2022/10/27 00:29:27;;;;;;;30.60;18.53;;;11.60;99.90;;;;;;5069862;28;20213;-71
2022/10/27 00:31:53;;;;;;;29.33;18.23;;;11.60;99.90;;;;;;5071116;28;20205;-71
2022/10/27 00:34:21;;;;;;;27.20;18.70;;;11.60;99.90;;;;;;5072412;28;20666;-70
2022/10/27 00:36:48;;;;;;;30.00;18.97;;;11.60;99.90;;;;;;5066920;28;20216;-71
2022/10/27 00:39:15;;;;;;;25.03;17.40;;;11.50;99.90;;;;;;5071523;28;20215;-71
2022/10/27 00:41:43;;;;;;;27.33;18.57;;;11.60;99.90;;;;;;5070949;28;20208;-72
2022/10/27 00:44:31;;;;;;;26.47;18.53;;;11.50;99.90;;;;;;5071961;28;20205;-71
2022/10/27 00:47:02;;;;;;;23.73;17.10;;;11.50;99.90;;;;;;5071714;28;20197;-71
2022/10/27 00:49:34;;;;;;;26.30;17.87;;;11.50;99.90;;;;;;5071094;28;20211;-71
2022/10/27 00:52:06;;;;;;;24.50;16.80;;;11.50;99.90;;;;;;5072622;28;20560;-71
2022/10/27 00:54:38;;;;;;;24.80;18.23;;;11.50;99.90;;;;;;5070291;28;20692;-71
2022/10/27 00:57:07;;;;;;;20.77;17.03;;;11.50;99.90;;;;;;5068069;28;20220;-71
2022/10/27 00:59:34;;;;;;;24.37;16.17;;;11.40;99.90;;;;;;5071818;28;20212;-70
2022/10/27 01:02:02;;;;;;;22.93;16.47;;;11.40;99.90;;;;;;5072133;28;20213;-71
2022/10/27 01:04:37;;;;;;;22.07;16.27;;;11.50;99.90;;;;;;5072359;28;20197;-71
2022/10/27 01:07:04;;;;;;;21.03;15.10;;;11.40;99.90;;;;;;5084579;28;20266;-72
2022/10/27 01:09:31;;;;;;;21.33;16.23;;;11.50;99.90;;;;;;5091958;28;20567;-71
2022/10/27 01:11:58;;;;;;;22.60;16.47;;;11.40;99.90;;;;;;5090791;28;20563;-72
2022/10/27 01:14:25;;;;;;;22.87;16.00;;;11.40;99.90;;;;;;5091678;28;20209;-71
2022/10/27 01:17:03;;;;;;;23.37;15.80;;;11.40;99.90;;;;;;5092669;28;20208;-72
2022/10/27 01:20:04;;;;;;;22.07;16.37;;;11.40;99.90;;;;;;5096756;28;20215;-71
2022/10/27 01:22:36;;;;;;;19.77;15.87;;;11.40;99.90;;;;;;5093020;28;20256;-71
2022/10/27 01:25:33;;;;;;;18.93;15.77;;;11.40;99.90;;;;;;5094338;28;20389;-71
2022/10/27 01:28:35;;;;;;;19.47;16.30;;;11.40;99.90;;;;;;5091416;28;20205;-70
2022/10/27 01:31:07;;;;;;;21.57;15.57;;;11.30;99.90;;;;;;5092332;28;20216;-71
2022/10/27 01:33:42;;;;;;;20.17;15.90;;;11.30;99.90;;;;;;5092803;28;20208;-71
2022/10/27 01:36:15;;;;;;;19.80;14.00;;;11.30;99.90;;;;;;5094748;28;20531;-71
2022/10/27 01:38:50;;;;;;;15.47;13.47;;;11.30;99.90;;;;;;5087119;28;20216;-71
2022/10/27 01:41:22;;;;;;;17.37;14.00;;;11.30;99.90;;;;;;5088523;28;20219;-71
2022/10/27 01:43:52;;;;;;;19.97;13.40;;;11.30;99.90;;;;;;5094284;28;20235;-71
2022/10/27 01:46:20;;;;;;;19.53;13.27;;;11.30;99.90;;;;;;5093603;28;20255;-71
2022/10/27 01:48:48;;;;;;;18.30;13.47;;;11.30;99.90;;;;;;5089542;28;20200;-71
2022/10/27 01:51:15;;;;;;;17.10;13.77;;;11.30;99.90;;;;;;5093365;28;20201;-71
2022/10/27 01:53:45;;;;;;;14.00;12.50;;;11.30;99.90;;;;;;5092652;28;20557;-71
2022/10/27 01:56:40;;;;;;;16.97;13.20;;;11.30;99.90;;;;;;5092890;28;20205;-71
2022/10/27 01:59:28;;;;;;;15.23;12.90;;;11.30;99.90;;;;;;5088626;28;20216;-71
2022/10/27 02:02:05;;;;;;;15.37;12.73;;;11.30;99.90;;;;;;5089446;28;20220;-71
2022/10/27 02:04:40;;;;;;;16.37;13.40;;;11.20;99.90;;;;;;5091936;28;20200;-71
2022/10/27 02:07:12;;;;;;;17.53;12.87;;;11.30;99.90;;;;;;5090835;28;20232;-71
2022/10/27 02:09:43;;;;;;;18.97;12.77;;;11.20;99.90;;;;;;5093902;28;20218;-71
2022/10/27 02:12:16;;;;;;;16.93;12.73;;;11.20;99.90;;;;;;5092034;28;20208;-71
2022/10/27 02:14:44;;;;;;;16.73;12.20;;;11.10;99.90;;;;;;5092662;28;20211;-71
2022/10/27 02:17:13;;;;;;;14.70;11.50;;;11.10;99.90;;;;;;5091484;28;20204;-71
2022/10/27 02:19:42;;;;;;;15.03;12.17;;;11.10;99.90;;;;;;5093861;28;20228;-71
2022/10/27 02:22:11;;;;;;;15.03;11.07;;;11.10;99.90;;;;;;5090604;28;20274;-71
2022/10/27 02:24:39;;;;;;;15.50;12.13;;;11.10;99.90;;;;;;5092808;28;20215;-71
2022/10/27 02:27:10;;;;;;;17.73;11.90;;;11.10;99.90;;;;;;5092937;28;20628;-72
2022/10/27 02:29:39;;;;;;;14.43;11.90;;;11.10;99.90;;;;;;5091651;28;20204;-72
2022/10/27 02:32:10;;;;;;;15.77;12.00;;;11.00;99.90;;;;;;5091716;28;20208;-71
2022/10/27 02:34:39;;;;;;;16.43;11.57;;;11.00;99.90;;;;;;5092497;28;20209;-71
2022/10/27 02:37:07;;;;;;;14.03;11.87;;;11.00;99.90;;;;;;5093078;28;20861;-71
2022/10/27 02:39:34;;;;;;;16.73;11.47;;;11.00;99.90;;;;;;5091440;28;20669;-71
2022/10/27 02:42:02;;;;;;;16.00;12.17;;;11.00;99.90;;;;;;5093408;28;20220;-71
2022/10/27 02:44:28;;;;;;;13.97;11.90;;;11.00;99.90;;;;;;5091692;28;20200;-71
2022/10/27 02:46:55;;;;;;;17.40;12.23;;;11.00;99.90;;;;;;5091940;28;20689;-72
2022/10/27 02:49:22;;;;;;;15.83;11.97;;;11.00;99.90;;;;;;5092723;28;20204;-72
2022/10/27 02:51:50;;;;;;;16.03;11.73;;;11.00;99.90;;;;;;5093180;28;21840;-71
2022/10/27 02:54:17;;;;;;;15.27;12.13;;;11.00;99.90;;;;;;5095167;28;20196;-71
2022/10/27 02:56:43;;;;;;;14.20;11.80;;;11.00;99.90;;;;;;5091803;28;20676;-71
2022/10/27 02:59:10;;;;;;;16.73;12.50;;;11.00;99.90;;;;;;5091052;28;20692;-72
2022/10/27 03:01:37;;;;;;;17.83;12.47;;;11.00;99.90;;;;;;5091065;28;20220;-71
2022/10/27 03:04:04;;;;;;;14.43;12.40;;;11.00;99.90;;;;;;5090654;28;20579;-70
2022/10/27 03:06:30;;;;;;;15.07;12.33;;;11.00;99.90;;;;;;5087474;28;20244;-71
2022/10/27 03:08:59;;;;;;;15.40;13.07;;;10.90;99.90;;;;;;5091619;28;20211;-72
2022/10/27 03:11:25;;;;;;;14.17;11.87;;;10.90;99.90;;;;;;5091945;28;20197;-72
2022/10/27 03:13:52;;;;;;;15.80;12.17;;;10.90;99.90;;;;;;5092411;28;20208;-71
2022/10/27 03:16:19;;;;;;;17.63;12.53;;;10.80;99.90;;;;;;5089733;28;20208;-73
2022/10/27 03:18:45;;;;;;;16.43;11.97;;;10.80;99.90;;;;;;5092564;28;20665;-71
2022/10/27 03:21:12;;;;;;;15.10;12.47;;;10.80;99.90;;;;;;5088442;28;20221;-72
2022/10/27 03:23:39;;;;;;;15.23;12.37;;;10.80;99.90;;;;;;5091613;28;20229;-71
2022/10/27 03:26:08;;;;;;;17.50;12.70;;;10.80;99.90;;;;;;5091248;28;20208;-70
2022/10/27 03:28:35;;;;;;;14.37;11.90;;;10.70;99.90;;;;;;5093109;28;20261;-70
2022/10/27 03:31:02;;;;;;;20.23;13.23;;;10.70;99.90;;;;;;5087163;28;20197;-71
2022/10/27 03:33:29;;;;;;;17.70;12.93;;;10.70;99.90;;;;;;5088355;28;20200;-71
2022/10/27 03:35:55;;;;;;;17.27;12.50;;;10.60;99.90;;;;;;5092399;28;20204;-71
2022/10/27 03:38:22;;;;;;;14.90;12.40;;;10.70;99.90;;;;;;5092163;28;20209;-70
2022/10/27 03:40:49;;;;;;;19.80;12.63;;;10.70;99.90;;;;;;5090825;28;20228;-71
2022/10/27 03:43:17;;;;;;;17.30;13.87;;;10.70;99.90;;;;;;5092078;28;20201;-71
2022/10/27 03:45:48;;;;;;;15.07;13.23;;;10.70;99.90;;;;;;5091050;28;20212;-71
2022/10/27 03:48:15;;;;;;;16.77;12.33;;;10.70;99.90;;;;;;5088168;28;20725;-71
2022/10/27 03:50:45;;;;;;;17.43;13.13;;;10.70;99.90;;;;;;5090373;28;20197;-71
2022/10/27 03:53:12;;;;;;;15.83;12.43;;;10.70;99.90;;;;;;5090856;28;20246;-70
2022/10/27 03:55:39;;;;;;;19.67;14.73;;;10.70;99.90;;;;;;5091570;28;20235;-72
2022/10/27 03:58:06;;;;;;;20.73;13.93;;;10.70;99.90;;;;;;5091781;28;20208;-71
2022/10/27 04:00:34;;;;;;;16.00;13.33;;;10.60;99.90;;;;;;5088497;28;20205;-71
2022/10/27 04:03:01;;;;;;;15.27;12.47;;;10.60;99.90;;;;;;5090461;28;20228;-72
2022/10/27 04:05:27;;;;;;;18.00;13.47;;;10.60;99.90;;;;;;5088119;28;20197;-72
2022/10/27 04:07:54;;;;;;;16.57;12.63;;;10.60;99.90;;;;;;5092270;28;20657;-71
2022/10/27 04:10:21;;;;;;;17.10;14.27;;;10.60;99.90;;;;;;5091704;28;20200;-70
2022/10/27 04:12:48;;;;;;;18.17;13.70;;;10.60;99.90;;;;;;5092293;28;20208;-71
2022/10/27 04:15:15;;;;;;;14.67;12.60;;;10.50;99.90;;;;;;5090894;28;20232;-71
2022/10/27 04:17:43;;;;;;;18.93;13.50;;;10.50;99.90;;;;;;5089710;28;20282;-72
2022/10/27 04:20:11;;;;;;;18.23;13.60;;;10.50;99.90;;;;;;5090763;28;20200;-70
2022/10/27 04:22:38;;;;;;;20.70;13.67;;;10.50;99.90;;;;;;5090240;28;20231;-72
2022/10/27 04:25:06;;;;;;;15.60;13.07;;;10.50;99.90;;;;;;5091491;28;20212;-71
2022/10/27 04:27:33;;;;;;;17.07;13.37;;;10.50;99.90;;;;;;5091774;28;20213;-71
2022/10/27 04:29:59;;;;;;;18.33;13.80;;;10.50;99.90;;;;;;5089906;28;20593;-72
2022/10/27 04:32:26;;;;;;;20.10;14.33;;;10.50;99.90;;;;;;5090313;28;20205;-72
2022/10/27 04:34:54;;;;;;;21.90;15.60;;;10.50;99.90;;;;;;5088684;28;20207;-71
2022/10/27 04:37:21;;;;;;;25.33;15.17;;;10.50;99.90;;;;;;5090447;28;20554;-71
2022/10/27 04:39:48;;;;;;;21.00;15.73;;;10.50;99.90;;;;;;5088918;28;20207;-73
2022/10/27 04:42:14;;;;;;;24.33;15.20;;;10.40;99.90;;;;;;5091606;28;20220;-72
2022/10/27 04:44:41;;;;;;;24.57;16.00;;;10.40;99.90;;;;;;5088733;28;20217;-68
2022/10/27 04:47:08;;;;;;;22.83;14.83;;;10.40;99.90;;;;;;5086538;28;20556;-71
2022/10/27 04:49:35;;;;;;;24.33;15.70;;;10.40;99.90;;;;;;5088949;28;20211;-74
2022/10/27 04:52:03;;;;;;;22.57;15.00;;;10.40;99.90;;;;;;5092880;28;20457;-74
2022/10/27 04:54:29;;;;;;;20.63;16.60;;;10.40;99.90;;;;;;5092930;28;20211;-74
2022/10/27 04:56:56;;;;;;;31.23;16.83;;;10.40;99.90;;;;;;5091461;28;20201;-74
2022/10/27 04:59:23;;;;;;;27.33;15.57;;;10.40;99.90;;;;;;5086737;28;20209;-73
2022/10/27 05:01:50;;;;;;;27.53;15.33;;;10.30;99.90;;;;;;5089600;28;20595;-74
2022/10/27 05:04:17;;;;;;;21.33;15.13;;;10.30;99.90;;;;;;5094056;28;20201;-73
2022/10/27 05:06:43;;;;;;;27.93;15.30;;;10.30;99.90;;;;;;5094339;28;20724;-74
2022/10/27 05:09:12;;;;;;;28.70;15.63;;;10.30;99.90;;;;;;5094050;28;20235;-73
2022/10/27 05:11:38;;;;;;;26.43;15.10;;;10.20;99.90;;;;;;5094813;28;20665;-73
2022/10/27 05:14:05;;;;;;;26.33;15.67;;;10.20;99.90;;;;;;5092168;28;20235;-74
2022/10/27 05:16:32;;;;;;;23.67;15.77;;;10.20;99.90;;;;;;5091383;28;20205;-74
2022/10/27 05:18:58;;;;;;;23.37;14.97;;;10.20;99.90;;;;;;5089638;28;20212;-73
2022/10/27 05:21:25;;;;;;;23.87;15.50;;;10.10;99.90;;;;;;5091501;28;20223;-74
2022/10/27 05:23:52;;;;;;;20.03;13.97;;;10.10;99.90;;;;;;5091406;28;20608;-74
2022/10/27 05:26:20;;;;;;;18.43;14.87;;;10.00;99.90;;;;;;5093860;28;20204;-74
2022/10/27 05:28:48;;;;;;;20.83;15.50;;;10.00;99.90;;;;;;5095122;28;20596;-75
2022/10/27 05:31:15;;;;;;;24.73;16.10;;;10.00;99.90;;;;;;5093925;28;20207;-76
2022/10/27 05:33:41;;;;;;;18.30;15.30;;;9.90;99.90;;;;;;5087909;28;20201;-73
2022/10/27 05:36:09;;;;;;;21.43;14.63;;;9.90;99.90;;;;;;5094657;28;20201;-74
2022/10/27 05:38:37;;;;;;;19.57;14.93;;;9.90;99.90;;;;;;5092333;28;20201;-74
2022/10/27 05:41:04;;;;;;;20.73;14.87;;;9.90;99.90;;;;;;5084944;28;20213;-74
2022/10/27 05:43:32;;;;;;;18.33;14.53;;;9.90;99.90;;;;;;5093306;28;20224;-73
2022/10/27 05:45:58;;;;;;;20.47;13.90;;;9.90;99.90;;;;;;5091858;28;20208;-73
2022/10/27 05:48:25;;;;;;;21.00;14.83;;;9.90;99.90;;;;;;5092683;28;20209;-72
2022/10/27 05:50:53;;;;;;;16.90;13.80;;;9.90;99.90;;;;;;5091023;28;20224;-72
2022/10/27 05:53:20;;;;;;;19.40;14.83;;;9.90;99.90;;;;;;5092196;28;20258;-73
2022/10/27 05:55:47;;;;;;;21.17;14.47;;;10.00;99.90;;;;;;5091648;28;20565;-72
2022/10/27 05:58:14;;;;;;;22.10;14.57;;;10.00;99.90;;;;;;5092221;28;20201;-73
2022/10/27 06:00:42;;;;;;;20.10;14.63;;;10.00;99.90;;;;;;5080906;28;20204;-72
2022/10/27 06:03:19;;;;;;;17.63;14.10;;;10.10;99.90;;;;;;5089749;28;20240;-73
2022/10/27 06:05:46;;;;;;;25.07;15.87;;;10.10;99.90;;;;;;5087773;28;20236;-72
2022/10/27 06:08:13;;;;;;;27.63;14.67;;;10.20;99.90;;;;;;5086900;28;20940;-72
2022/10/27 06:10:40;;;;;;;28.70;16.40;;;10.30;99.90;;;;;;5082757;28;21770;-70
2022/10/27 06:13:07;;;;;;;21.13;15.47;;;10.30;99.90;;;;;;5091658;28;20204;-72
2022/10/27 06:15:34;;;;;;;23.73;15.30;;;10.30;99.90;;;;;;5092792;28;20546;-73
2022/10/27 06:18:03;;;;;;;24.40;17.20;;;10.40;99.90;;;;;;5091251;28;20716;-75
2022/10/27 06:20:30;;;;;;;29.57;16.60;;;10.50;99.90;;;;;;5092323;28;20209;-73
2022/10/27 06:22:57;;;;;;;23.10;14.20;;;10.70;99.90;;;;;;5087663;28;20543;-74
2022/10/27 06:25:23;;;;;;;21.57;14.73;;;10.70;99.90;;;;;;5090508;28;20200;-73
2022/10/27 06:27:50;;;;;;;22.57;14.97;;;10.80;99.90;;;;;;5090319;28;20776;-71
2022/10/27 06:30:17;;;;;;;25.67;15.00;;;10.90;99.90;;;;;;5089276;28;20673;-70
2022/10/27 06:32:44;;;;;;;25.77;15.30;;;10.90;99.90;;;;;;5091151;28;20204;-75
2022/10/27 06:35:13;;;;;;;20.87;14.47;;;11.00;99.90;;;;;;5091794;28;20219;-72
2022/10/27 06:37:40;;;;;;;19.53;14.90;;;11.10;99.90;;;;;;5089958;28;20204;-70
2022/10/27 06:40:08;;;;;;;20.57;15.03;;;11.10;99.90;;;;;;5087440;28;20198;-70
2022/10/27 06:42:36;;;;;;;21.03;15.17;;;11.10;99.90;;;;;;5087870;28;20220;-72
2022/10/27 06:45:03;;;;;;;20.83;14.80;;;11.10;99.90;;;;;;5089405;28;20205;-71
2022/10/27 06:47:30;;;;;;;21.93;14.00;;;11.10;99.90;;;;;;5093360;28;20322;-72
2022/10/27 06:49:58;;;;;;;18.27;14.00;;;11.10;99.90;;;;;;5091570;28;20205;-70
2022/10/27 06:52:26;;;;;;;21.60;14.10;;;11.10;99.90;;;;;;5088949;28;20262;-69
2022/10/27 06:54:53;;;;;;;21.80;15.33;;;11.20;99.90;;;;;;5089184;28;20205;-71
2022/10/27 06:57:20;;;;;;;24.77;18.33;;;11.20;99.90;;;;;;5091403;28;20211;-70
2022/10/27 06:59:47;;;;;;;22.57;16.03;;;11.30;99.90;;;;;;5090205;28;20631;-70
2022/10/27 07:02:14;;;;;;;21.37;15.63;;;11.40;99.90;;;;;;5091961;28;20304;-70
2022/10/27 07:04:41;;;;;;;22.23;14.43;;;11.50;99.90;;;;;;5087063;28;20212;-71
2022/10/27 07:07:08;;;;;;;20.10;14.80;;;11.50;99.90;;;;;;5083965;28;20232;-71
2022/10/27 07:09:36;;;;;;;18.87;14.50;;;11.60;99.90;;;;;;5090777;28;20714;-71
2022/10/27 07:12:03;;;;;;;18.93;13.63;;;11.70;99.90;;;;;;5090895;28;20223;-71
2022/10/27 07:14:29;;;;;;;18.00;13.37;;;11.70;99.90;;;;;;5089248;28;20212;-74
2022/10/27 07:16:58;;;;;;;17.63;13.20;;;11.90;99.90;;;;;;5085838;28;20206;-70
2022/10/27 07:19:25;;;;;;;18.77;13.67;;;12.10;99.90;;;;;;5092058;28;20212;-71
2022/10/27 07:21:52;;;;;;;21.30;13.43;;;12.20;99.90;;;;;;5090766;28;20233;-69
2022/10/27 07:24:18;;;;;;;25.13;13.70;;;12.40;99.90;;;;;;5091792;28;20199;-69
2022/10/27 07:26:47;;;;;;;19.27;13.63;;;12.40;99.90;;;;;;5087744;28;20212;-70
2022/10/27 07:29:14;;;;;;;17.03;13.70;;;12.50;99.90;;;;;;5089812;28;20545;-70
2022/10/27 07:31:44;;;;;;;21.53;13.60;;;12.60;99.90;;;;;;5088491;28;20580;-71
2022/10/27 07:34:10;;;;;;;21.37;12.77;;;12.60;99.90;;;;;;5091616;28;20439;-70
2022/10/27 07:36:37;;;;;;;16.83;12.80;;;12.70;99.90;;;;;;5089198;28;20209;-69
2022/10/27 07:39:04;;;;;;;18.20;13.13;;;12.80;99.90;;;;;;5088502;28;20240;-71
2022/10/27 07:41:31;;;;;;;21.53;13.87;;;12.70;99.90;;;;;;5088261;28;20603;-71
2022/10/27 07:43:59;;;;;;;17.83;13.43;;;12.80;99.90;;;;;;5087406;28;20783;-71
2022/10/27 07:46:26;;;;;;;16.03;13.60;;;12.90;99.90;;;;;;5088895;28;20216;-71
2022/10/27 07:48:52;;;;;;;18.40;13.23;;;13.10;99.90;;;;;;5084146;28;20669;-71
2022/10/27 07:51:19;;;;;;;20.33;13.33;;;13.40;99.90;;;;;;5089192;28;20224;-71
2022/10/27 07:53:49;;;;;;;17.20;13.40;;;13.60;99.90;;;;;;5087930;28;20704;-72
2022/10/27 07:56:16;;;;;;;17.67;12.90;;;13.80;99.90;;;;;;5086276;28;20216;-72
2022/10/27 07:58:42;;;;;;;17.60;12.97;;;14.00;99.90;;;;;;5080954;28;20213;-72
2022/10/27 08:01:10;;;;;;;17.83;12.63;;;14.20;99.90;;;;;;5085061;28;20204;-71
2022/10/27 08:03:37;;;;;;;18.70;13.30;;;14.40;99.90;;;;;;5088202;28;20229;-71
2022/10/27 08:06:04;;;;;;;15.13;11.60;;;14.60;99.90;;;;;;5087815;28;20251;-71
2022/10/27 08:08:32;;;;;;;18.53;12.90;;;14.80;99.90;;;;;;5083582;28;20388;-71
2022/10/27 08:10:58;;;;;;;20.80;12.53;;;15.10;99.90;;;;;;5083643;28;20204;-71
2022/10/27 08:13:25;;;;;;;13.73;11.70;;;15.50;99.90;;;;;;5086757;28;20207;-71
2022/10/27 08:15:53;;;;;;;14.57;12.10;;;16.00;99.90;;;;;;5083836;28;20200;-71
2022/10/27 08:18:21;;;;;;;17.97;12.33;;;16.30;99.90;;;;;;5090681;28;20283;-71
2022/10/27 08:20:48;;;;;;;19.60;12.77;;;16.70;99.90;;;;;;5089891;28;20556;-71
2022/10/27 08:23:17;;;;;;;16.30;11.90;;;16.90;99.90;;;;;;5089636;28;20228;-71
2022/10/27 08:25:44;;;;;;;19.77;11.90;;;16.90;99.90;;;;;;5088191;28;20568;-71
2022/10/27 08:28:12;;;;;;;13.38;11.35;;;16.90;99.90;;;;;;5083507;28;20205;-71
2022/10/27 08:30:39;;;;;;;16.83;12.00;;;16.90;99.90;;;;;;5086460;28;20221;-71
2022/10/27 08:33:07;;;;;;;18.98;12.27;;;16.90;99.90;;;;;;5086812;28;20200;-69
2022/10/27 08:35:36;;;;;;;21.75;12.05;;;17.00;99.90;;;;;;5089999;28;20205;-71
2022/10/27 08:38:05;;;;;;;15.25;11.30;;;17.20;99.90;;;;;;5090887;28;20207;-72
2022/10/27 08:40:38;;;;;;;18.17;12.00;;;17.40;99.90;;;;;;5090226;28;20691;-70
2022/10/27 08:43:27;;;;;;;13.32;10.70;;;17.80;99.90;;;;;;5086691;28;20220;-71
2022/10/27 08:46:01;;;;;;;14.40;11.00;;;19.00;99.90;;;;;;5088907;28;20258;-70
2022/10/27 08:48:32;;;;;;;16.33;10.88;;;21.30;99.90;;;;;;5085409;28;20240;-71
2022/10/27 08:51:01;;;;;;;13.70;10.35;;;23.90;99.90;;;;;;5086526;28;20258;-71
2022/10/27 08:53:33;;;;;;;16.35;9.80;;;26.30;93.40;;;;;;5090184;28;20205;-71
2022/10/27 08:56:04;;;;;;;16.58;9.80;;;28.40;83.00;;;;;;5085350;28;20790;-69
2022/10/27 08:58:36;;;;;;;16.20;9.65;;;30.20;70.80;;;;;;5090092;28;20209;-71
2022/10/27 09:01:12;;;;;;;14.38;8.82;;;32.20;62.20;;;;;;5087461;28;20586;-71
2022/10/27 09:03:58;;;;;;;15.38;9.25;;;34.20;56.10;;;;;;5090727;28;20216;-71
2022/10/27 09:06:29;;;;;;;13.13;9.82;;;35.40;50.20;;;;;;5086090;28;20228;-69
2022/10/27 09:09:02;;;;;;;13.73;9.38;;;36.20;47.90;;;;;;5087957;28;20200;-72
2022/10/27 09:11:38;;;;;;;13.18;8.73;;;37.20;45.80;;;;;;5089685;28;20196;-71
2022/10/27 09:14:17;;;;;;;12.98;9.18;;;37.70;44.20;;;;;;5090257;28;20212;-70
2022/10/27 09:16:49;;;;;;;17.05;9.80;;;37.70;43.00;;;;;;5088757;28;20579;-69
2022/10/27 09:19:22;;;;;;;14.13;8.55;;;38.60;41.80;;;;;;5090278;28;20208;-68
2022/10/27 09:21:51;;;;;;;16.08;9.48;;;39.70;40.30;;;;;;5088892;28;20233;-69
2022/10/27 09:24:23;;;;;;;13.38;8.18;;;40.70;38.20;;;;;;5089383;28;20231;-69
2022/10/27 09:26:50;;;;;;;14.52;9.25;;;41.60;37.10;;;;;;5088481;28;20203;-69
2022/10/27 09:29:20;;;;;;;16.33;8.68;;;42.30;35.80;;;;;;5086177;28;20216;-71
2022/10/27 09:31:51;;;;;;;13.05;9.38;;;43.10;35.00;;;;;;5090267;28;20239;-69
2022/10/27 09:34:21;;;;;;;15.43;8.18;;;43.60;33.40;;;;;;5091970;28;20184;-69
2022/10/27 09:36:49;;;;;;;12.60;8.50;;;44.00;33.00;;;;;;5086854;28;20216;-71
2022/10/27 09:39:16;;;;;;;11.88;7.90;;;44.50;32.30;;;;;;5081336;28;20212;-68
2022/10/27 09:41:43;;;;;;;10.25;6.68;;;45.10;31.80;;;;;;5092519;28;20641;-68
2022/10/27 09:44:18;;;;;;;15.77;7.38;;;45.40;31.20;;;;;;5093475;28;20223;-68
2022/10/27 09:46:48;;;;;;;11.13;7.18;;;45.20;30.60;;;;;;5093501;28;20529;-68
2022/10/27 09:49:16;;;;;;;12.27;6.50;;;44.80;31.20;;;;;;5094553;28;20540;-68
2022/10/27 09:51:49;;;;;;;7.88;6.35;;;44.50;30.60;;;;;;5092665;28;20215;-68
2022/10/27 09:54:32;;;;;;;12.60;6.38;;;44.30;30.70;;;;;;5094277;28;20548;-67
2022/10/27 09:57:07;;;;;;;10.30;6.47;;;44.40;30.10;;;;;;5093745;28;20192;-68
2022/10/27 09:59:36;;;;;;;9.18;6.40;;;44.40;30.10;;;;;;5093044;28;20200;-67
2022/10/27 10:02:05;;;;;;;9.68;5.85;;;44.20;30.20;;;;;;5092418;28;20247;-68
2022/10/27 10:04:34;;;;;;;7.82;5.88;;;44.00;30.00;;;;;;5093491;28;20223;-67
2022/10/27 10:07:03;;;;;;;11.18;6.00;;;43.70;30.00;;;;;;5093402;28;20242;-68
2022/10/27 10:09:33;;;;;;;11.57;6.43;;;44.10;30.30;;;;;;5093926;28;20560;-68
2022/10/27 10:12:18;;;;;;;9.38;5.93;;;45.10;29.60;;;;;;5093740;28;20207;-69
2022/10/27 10:14:45;;;;;;;14.98;6.57;;;46.00;29.20;;;;;;5093985;28;20192;-68
2022/10/27 10:17:24;;;;;;;10.32;5.75;;;47.10;28.50;;;;;;5092625;28;20596;-69
2022/10/27 10:19:53;;;;;;;9.82;5.95;;;48.10;27.70;;;;;;5093415;28;20559;-68
2022/10/27 10:22:24;;;;;;;11.23;5.75;;;48.90;27.50;;;;;;5093262;28;20220;-69
2022/10/27 10:24:53;;;;;;;11.70;6.70;;;49.40;27.10;;;;;;5093237;28;20210;-69
2022/10/27 10:27:31;;;;;;;9.75;6.28;;;49.80;26.70;;;;;;5093236;28;20200;-70
2022/10/27 10:30:02;;;;;;;9.23;6.38;;;50.20;26.40;;;;;;5093473;28;20196;-69
2022/10/27 10:32:32;;;;;;;8.30;6.53;;;50.60;26.30;;;;;;5093689;28;20292;-71
2022/10/27 10:34:59;;;;;;;10.23;6.07;;;50.60;25.80;;;;;;5092427;28;20208;-69
2022/10/27 10:37:45;;;;;;;8.48;6.28;;;49.80;26.00;;;;;;5092949;28;20204;-68
2022/10/27 10:40:27;;;;;;;9.68;6.15;;;49.70;26.00;;;;;;5093358;28;20184;-68
2022/10/27 10:43:03;;;;;;;12.90;6.78;;;50.00;25.90;;;;;;5092756;28;20212;-68
2022/10/27 10:45:34;;;;;;;10.40;5.85;;;50.30;26.00;;;;;;5092868;28;20203;-68
2022/10/27 10:48:04;;;;;;;9.70;7.63;;;50.60;25.80;;;;;;5092856;28;20189;-69
2022/10/27 10:50:34;;;;;;;10.32;6.10;;;51.20;25.50;;;;;;5091712;28;20199;-69
2022/10/27 10:53:01;;;;;;;9.40;6.28;;;51.40;25.30;;;;;;5092579;28;20203;-69
2022/10/27 10:55:34;;;;;;;7.07;5.68;;;51.70;25.20;;;;;;5092689;28;20195;-70
2022/10/27 10:58:02;;;;;;;9.27;6.05;;;51.80;25.00;;;;;;5093209;28;20195;-70
2022/10/27 11:00:29;;;;;;;9.55;6.25;;;51.80;25.00;;;;;;5092669;28;20228;-69
2022/10/27 11:02:59;;;;;;;10.55;6.00;;;52.00;24.80;;;;;;5092262;28;20539;-69
2022/10/27 11:05:30;;;;;;;9.43;5.55;;;52.20;24.70;;;;;;5091568;28;20196;-69
2022/10/27 11:07:57;;;;;;;12.23;5.78;;;52.40;24.50;;;;;;5092623;28;20211;-69
2022/10/27 11:10:27;;;;;;;6.93;5.30;;;52.60;24.40;;;;;;5092239;28;20210;-69
2022/10/27 11:12:59;;;;;;;6.45;5.13;;;52.30;24.40;;;;;;5091671;28;20629;-70
2022/10/27 11:15:29;;;;;;;7.70;5.50;;;51.70;24.50;;;;;;5092168;28;20310;-69
2022/10/27 11:18:00;;;;;;;8.27;5.43;;;51.70;24.80;;;;;;5091820;28;20188;-68
2022/10/27 11:20:30;;;;;;;6.60;4.85;;;51.60;24.30;;;;;;5092354;28;20198;-69
2022/10/27 11:22:59;;;;;;;6.65;5.15;;;51.30;24.60;;;;;;5090886;28;20517;-69
2022/10/27 11:25:30;;;;;;;9.32;4.82;;;51.10;24.50;;;;;;5091823;28;20200;-70
2022/10/27 11:28:04;;;;;;;7.78;4.35;;;50.80;24.60;;;;;;5091378;28;20193;-69
2022/10/27 11:30:36;;;;;;;6.72;4.97;;;50.60;24.60;;;;;;5091887;28;20191;-69
2022/10/27 11:33:10;;;;;;;6.15;4.75;;;50.30;24.80;;;;;;5091779;28;20569;-69
2022/10/27 11:35:44;;;;;;;9.65;4.93;;;50.10;25.00;;;;;;5091551;28;20656;-68
2022/10/27 11:38:18;;;;;;;7.03;5.55;;;50.40;25.00;;;;;;5091997;28;20184;-68
2022/10/27 11:40:51;;;;;;;6.70;4.38;;;50.60;24.80;;;;;;5091040;28;20214;-70
2022/10/27 11:43:28;;;;;;;5.97;4.55;;;50.00;24.50;;;;;;5091957;28;20192;-69
2022/10/27 11:46:01;;;;;;;8.27;4.60;;;48.20;24.80;;;;;;5092315;28;20199;-69
2022/10/27 11:48:35;;;;;;;4.80;4.15;;;45.80;26.00;;;;;;5091764;28;20193;-70
2022/10/27 11:51:06;;;;;;;7.13;4.40;;;43.10;27.40;;;;;;5092251;28;20193;-68
2022/10/27 11:53:33;;;;;;;13.32;4.32;;;40.50;29.00;;;;;;5091952;28;20680;-69
2022/10/27 11:56:22;;;;;;;6.97;4.07;;;38.30;30.90;;;;;;5090344;28;20216;-69
2022/10/27 11:59:01;;;;;;;7.05;4.68;;;36.10;33.50;;;;;;5091677;28;20196;-68
2022/10/27 12:01:41;;;;;;;5.45;4.65;;;34.20;35.70;;;;;;5091329;28;20653;-69
2022/10/27 12:04:24;;;;;;;7.35;4.72;;;32.60;38.10;;;;;;5091392;28;20189;-69
2022/10/27 12:07:02;;;;;;;9.45;5.00;;;31.20;40.20;;;;;;5091094;28;20334;-68
2022/10/27 12:09:39;;;;;;;9.02;5.28;;;29.90;42.40;;;;;;5091256;28;20203;-68
2022/10/27 12:12:13;;;;;;;7.40;5.65;;;28.80;44.40;;;;;;5090299;28;20227;-70
2022/10/27 12:14:50;;;;;;;10.40;5.50;;;27.80;46.30;;;;;;5090984;28;20230;-67
2022/10/27 12:17:22;;;;;;;10.88;5.32;;;26.90;48.20;;;;;;5091438;28;20188;-68
2022/10/27 12:19:53;;;;;;;14.07;7.03;;;25.90;49.60;;;;;;5090754;28;20192;-68
2022/10/27 12:22:27;;;;;;;8.52;5.97;;;25.30;51.40;;;;;;5090720;28;20220;-69
2022/10/27 12:24:59;;;;;;;8.55;6.50;;;24.70;52.70;;;;;;5090965;28;20184;-68
2022/10/27 12:27:30;;;;;;;11.45;6.50;;;24.00;53.90;;;;;;5090706;28;20201;-70
2022/10/27 12:30:02;;;;;;;8.15;6.20;;;23.50;55.20;;;;;;5090845;28;20185;-69
2022/10/27 12:32:34;;;;;;;8.38;7.05;;;23.10;56.50;;;;;;5091158;28;20211;-69
2022/10/27 12:35:07;;;;;;;10.60;7.95;;;22.70;57.60;;;;;;5090948;28;20220;-68
2022/10/27 12:37:43;;;;;;;11.98;7.72;;;22.30;58.70;;;;;;5090735;28;20189;-69
2022/10/27 12:40:20;;;;;;;10.05;7.97;;;22.00;59.80;;;;;;5090794;28;20336;-68
2022/10/27 12:42:56;;;;;;;10.93;8.50;;;21.70;61.00;;;;;;5090007;28;20229;-68